createdAt,value
2022-11-03T00:02:00.175Z,17.77
2022-11-03T00:07:03.416Z,17.00
2022-11-03T00:12:05.482Z,15.80
2022-11-03T00:17:07.200Z,17.27
2022-11-03T00:22:10.522Z,16.40
2022-11-03T00:27:12.229Z,17.92
2022-11-03T00:32:13.978Z,16.27
2022-11-03T00:37:17.086Z,17.92
2022-11-03T00:42:18.819Z,19.00
2022-11-03T00:52:38.105Z,20.15
2022-11-03T00:57:39.833Z,19.30
2022-11-03T01:02:41.681Z,16.10
2022-11-03T01:07:44.967Z,21.75
2022-11-03T01:12:46.792Z,18.40
2022-11-03T01:17:48.516Z,21.52
2022-11-03T01:22:51.794Z,16.45
2022-11-03T01:27:53.581Z,16.80
2022-11-03T01:32:55.365Z,21.52
2022-11-03T01:37:58.634Z,21.62
2022-11-03T01:43:15.514Z,16.40
2022-11-03T01:48:18.670Z,17.15
2022-11-03T01:53:22.721Z,16.17
2022-11-03T01:58:28.009Z,25.57
2022-11-03T02:03:35.027Z,15.93
2022-11-03T02:08:43.718Z,15.60
2022-11-03T02:13:45.503Z,17.52
2022-11-03T02:18:49.316Z,18.67
2022-11-03T02:24:01.186Z,15.00
2022-11-03T02:29:04.471Z,15.63
2022-11-03T02:34:13.409Z,15.95
2022-11-03T02:39:19.558Z,15.43
2022-11-03T02:44:23.250Z,16.62
2022-11-03T02:49:25.477Z,18.37
2022-11-03T02:54:31.294Z,21.65
2022-11-03T02:59:40.918Z,14.52
2022-11-03T03:04:46.801Z,16.37
2022-11-03T03:09:57.084Z,18.33
2022-11-03T03:15:03.970Z,15.00
2022-11-03T03:20:10.851Z,15.38
2022-11-03T03:25:16.475Z,17.10
2022-11-03T03:30:20.047Z,15.50
2022-11-03T03:35:26.353Z,14.23
2022-11-03T03:46:13.755Z,15.43
2022-11-03T03:51:16.755Z,15.65
2022-11-03T03:56:21.110Z,21.58
2022-11-03T04:01:24.427Z,16.08
2022-11-03T04:06:26.292Z,15.30
2022-11-03T04:11:28.188Z,16.67
2022-11-03T04:16:31.344Z,14.35
2022-11-03T04:27:32.215Z,16.35
2022-11-03T04:32:35.839Z,16.25
2022-11-03T04:37:37.646Z,14.95
2022-11-03T04:42:39.481Z,16.90
2022-11-03T04:47:49.635Z,15.50
2022-11-03T05:03:54.857Z,15.63
2022-11-03T05:09:00.278Z,15.70
2022-11-03T05:14:04.237Z,15.70
2022-11-03T05:19:15.042Z,15.70
2022-11-03T05:24:21.150Z,14.90
2022-11-03T05:29:25.360Z,14.35
2022-11-03T05:34:34.875Z,20.25
2022-11-03T05:39:40.078Z,14.45
2022-11-03T05:44:41.839Z,15.73
2022-11-03T05:49:44.981Z,16.15
2022-11-03T06:00:48.981Z,15.63
2022-11-03T06:05:52.745Z,15.85
2022-11-03T06:10:56.783Z,16.58
2022-11-03T06:16:01.741Z,14.73
2022-11-03T06:21:10.351Z,17.70
2022-11-03T06:26:18.142Z,22.45
2022-11-03T06:31:37.560Z,18.30
2022-11-03T06:36:48.651Z,15.40
2022-11-03T06:41:55.702Z,15.23
2022-11-03T06:47:01.541Z,15.55
2022-11-03T06:52:25.980Z,19.35
2022-11-03T06:57:34.259Z,19.10
2022-11-03T07:02:52.492Z,15.45
2022-11-03T07:07:57.036Z,15.25
2022-11-03T08:58:34.155Z,19.73
2022-11-03T09:04:46.655Z,30.60
2022-11-03T09:11:29.567Z,20.70
2022-11-03T09:50:28.242Z,14.57
2022-11-03T09:55:56.528Z,15.20
2022-11-03T10:01:33.646Z,16.02
2022-11-03T10:06:36.985Z,27.27
2022-11-03T10:12:08.280Z,15.55
2022-11-03T10:17:51.030Z,17.52
2022-11-03T10:23:30.188Z,14.82
2022-11-03T10:34:44.612Z,14.27
2022-11-03T10:46:51.219Z,13.80
2022-11-03T10:59:11.287Z,18.02
2022-11-03T11:03:48.969Z,19.65
2022-11-03T11:08:58.784Z,15.02
2022-11-03T11:14:33.981Z,14.40
2022-11-03T11:20:12.219Z,13.43
2022-11-03T11:25:19.477Z,15.90
2022-11-03T11:37:17.888Z,15.88
2022-11-03T11:43:01.772Z,19.75
2022-11-03T11:54:35.191Z,17.70
2022-11-03T11:59:38.348Z,18.08
2022-11-03T12:22:05.938Z,20.58
2022-11-03T12:27:42.451Z,15.70
2022-11-03T13:24:06.010Z,13.30
2022-11-03T13:29:07.815Z,19.25
2022-11-03T13:34:14.450Z,20.02
2022-11-03T13:39:16.501Z,18.45
2022-11-03T13:44:18.731Z,19.48
2022-11-03T14:00:08.373Z,18.60
2022-11-03T14:05:12.123Z,18.58
2022-11-03T14:10:13.963Z,18.77
2022-11-03T14:15:15.843Z,17.17
2022-11-03T14:26:40.228Z,26.70
2022-11-03T14:31:43.790Z,19.60
2022-11-03T14:36:45.689Z,20.52
2022-11-03T14:41:49.097Z,14.98
2022-11-03T14:46:51.271Z,12.70
2022-11-03T14:57:17.090Z,13.00
2022-11-03T15:02:19.175Z,18.17
2022-11-03T15:07:22.861Z,14.20
2022-11-03T15:12:26.114Z,14.98
2022-11-03T15:17:28.066Z,11.73
2022-11-03T15:27:53.042Z,11.52
2022-11-03T15:32:55.005Z,13.38
2022-11-03T15:37:56.900Z,13.20
2022-11-03T15:43:02.976Z,13.48
2022-11-03T15:48:06.495Z,11.45
2022-11-03T15:53:08.537Z,13.30
2022-11-03T15:58:50.643Z,14.00
2022-11-03T16:03:54.074Z,15.48
2022-11-03T16:08:55.950Z,14.00
2022-11-03T16:13:58.021Z,21.17
2022-11-03T16:30:34.640Z,16.67
2022-11-03T16:35:37.923Z,19.48
2022-11-03T16:40:39.757Z,17.30
2022-11-03T16:45:41.730Z,23.60
2022-11-03T16:50:45.202Z,19.62
2022-11-03T16:55:47.025Z,23.90
2022-11-03T17:00:48.819Z,22.00
2022-11-03T17:12:05.368Z,22.92
2022-11-03T17:17:07.541Z,17.40
2022-11-03T17:22:30.070Z,18.77
2022-11-03T17:28:14.276Z,16.55
2022-11-03T17:33:18.651Z,14.77
2022-11-03T17:38:20.603Z,22.73
2022-11-03T17:49:37.241Z,27.00
2022-11-03T17:54:39.337Z,20.58
2022-11-03T17:59:41.889Z,28.02
2022-11-03T18:11:19.106Z,31.45
2022-11-03T18:16:30.582Z,37.63
2022-11-03T18:22:24.367Z,30.55
2022-11-03T18:27:36.240Z,22.42
2022-11-03T19:12:38.821Z,20.48
2022-11-03T19:23:37.214Z,22.55
2022-11-03T19:28:39.055Z,23.90
2022-11-03T19:33:59.927Z,19.48
2022-11-03T19:39:22.569Z,24.67
2022-11-03T19:44:24.448Z,27.23
2022-11-03T19:49:27.791Z,35.85
2022-11-03T20:00:43.889Z,29.60
2022-11-03T20:05:49.845Z,19.52
2022-11-03T20:16:39.126Z,27.55
2022-11-03T20:21:42.732Z,31.10
2022-11-03T20:26:44.490Z,30.23
2022-11-03T20:31:46.555Z,24.35
2022-11-03T20:36:49.702Z,21.55
2022-11-03T20:41:51.447Z,20.70
2022-11-03T20:46:53.180Z,23.67
2022-11-03T20:51:56.355Z,24.40
2022-11-03T20:56:58.246Z,23.45
2022-11-03T21:02:00.221Z,23.87
2022-11-03T21:07:03.428Z,23.05
2022-11-03T21:12:06.057Z,19.73
2022-11-03T21:17:13.686Z,19.05
2022-11-03T21:22:45.772Z,17.15
2022-11-03T21:27:42.087Z,19.98
2022-11-03T21:32:44.054Z,16.80
2022-11-03T21:43:50.696Z,17.75
2022-11-03T21:48:52.507Z,18.15
2022-11-03T21:53:54.481Z,23.85
2022-11-03T21:58:58.039Z,22.83
2022-11-03T22:04:16.169Z,18.73
2022-11-03T22:09:18.089Z,21.98
2022-11-03T22:14:28.735Z,20.98
2022-11-03T22:19:30.535Z,19.83
2022-11-03T22:24:38.604Z,16.83
2022-11-03T22:29:41.704Z,19.05
2022-11-03T22:34:43.685Z,20.20
2022-11-03T22:39:45.542Z,31.80
2022-11-03T22:44:53.190Z,21.30
2022-11-03T22:49:56.697Z,19.60
2022-11-03T22:54:58.509Z,19.67
2022-11-03T23:00:01.922Z,20.70
2022-11-03T23:05:04.381Z,20.60
2022-11-03T23:10:11.497Z,17.80
2022-11-03T23:15:14.766Z,17.08
2022-11-03T23:20:17.474Z,19.25
2022-11-03T23:25:19.362Z,19.77
2022-11-03T23:30:25.529Z,22.87
2022-11-03T23:35:27.332Z,23.08
2022-11-03T23:40:29.206Z,29.60
2022-11-03T23:45:34.912Z,24.27
2022-11-03T23:50:38.535Z,26.10
